createdAt,value
2016-06-06T08:40:11.839Z,30.68
2016-06-06T08:41:11.874Z,30.68
2016-06-06T08:42:11.908Z,30.88
2016-06-06T08:43:11.926Z,30.78
2016-06-06T08:44:11.975Z,30.88
2016-06-06T08:45:12.025Z,31.07
2016-06-06T08:46:12.012Z,31.17
2016-06-06T08:47:12.030Z,31.45
2016-06-06T08:48:12.080Z,31.54
2016-06-06T08:49:12.099Z,31.54
2016-06-06T08:50:11.976Z,31.74
2016-06-06T08:51:12.182Z,32.23
2016-06-06T08:52:12.185Z,32.23
2016-06-06T08:53:12.218Z,32.31
2016-06-06T08:54:12.237Z,32.6
2016-06-06T08:55:12.271Z,32.7
2016-06-06T08:56:12.304Z,32.5
2016-06-06T08:57:12.338Z,32.97
2016-06-06T08:58:12.372Z,33.17
2016-06-06T08:59:12.766Z,33.17
2016-06-06T09:00:12.268Z,33.36
2016-06-06T09:01:12.459Z,33.17
2016-06-06T09:02:12.477Z,33.83
2016-06-06T09:03:12.511Z,34.42
2016-06-06T09:04:12.545Z,34.12
2016-06-06T09:05:12.595Z,34.32
2016-06-06T09:06:12.597Z,34.22
2016-06-06T09:07:12.647Z,34.59
2016-06-06T09:08:12.649Z,35.08
2016-06-06T09:09:12.684Z,35.08
2016-06-06T09:10:12.733Z,35.37
2016-06-06T09:11:12.736Z,35.47
2016-06-06T09:12:12.786Z,35.45
2016-06-06T09:13:12.803Z,35.25
2016-06-06T09:14:12.853Z,35.74
2016-06-06T09:15:12.855Z,36.32
2016-06-06T09:16:12.889Z,36.13
2016-06-06T09:17:12.924Z,35.82
2016-06-06T09:18:12.942Z,36.21
2016-06-06T09:19:12.976Z,36.11
2016-06-06T09:20:13.010Z,36.6
2016-06-06T09:21:13.044Z,36.3
2016-06-06T09:22:13.077Z,36.6
2016-06-06T09:23:13.096Z,36.89
2016-06-06T09:24:13.146Z,36.87
2016-06-06T09:25:13.148Z,37.07
2016-06-06T09:26:13.229Z,37.07
2016-06-06T09:27:13.216Z,37.26
2016-06-06T09:28:13.235Z,37.65
2016-06-06T09:29:14.081Z,37.55
2016-06-06T09:30:13.302Z,37.65
2016-06-06T09:31:13.336Z,37.92
2016-06-06T09:32:13.354Z,38.12
2016-06-06T09:33:13.373Z,37.82
2016-06-06T09:34:13.423Z,38.02
2016-06-06T09:35:13.441Z,38.31
2016-06-06T09:36:13.475Z,38.12
2016-06-06T09:37:13.509Z,38.5
2016-06-06T09:38:13.527Z,38.4
2016-06-06T09:39:13.561Z,38.4
2016-06-06T09:40:13.595Z,38.68
2016-06-06T09:41:13.614Z,39.06
2016-06-06T09:42:13.647Z,39.16
2016-06-06T09:43:13.681Z,38.78
2016-06-06T09:44:13.714Z,39.55
2016-06-06T09:45:13.781Z,38.78
2016-06-06T09:46:13.814Z,38.96
2016-06-06T09:47:13.786Z,39.16
2016-06-06T09:48:13.819Z,38.96
2016-06-06T09:49:13.838Z,39.36
2016-06-06T09:50:13.871Z,39.26
2016-06-06T09:51:13.905Z,39.43
2016-06-06T09:52:13.924Z,39.62
2016-06-06T09:53:13.958Z,39.43
2016-06-06T09:54:13.992Z,39.43
2016-06-06T09:55:14.010Z,40.21
2016-06-06T09:56:14.044Z,40.11
2016-06-06T09:57:14.079Z,40.21
2016-06-06T09:58:14.127Z,39.92
2016-06-06T09:59:14.865Z,39.92
2016-06-06T10:00:14.165Z,40.21
2016-06-06T10:01:14.183Z,40.5
2016-06-06T10:02:14.217Z,40.21
2016-06-06T10:03:14.251Z,40.4
2016-06-06T10:04:14.268Z,40.11
2016-06-06T10:05:14.318Z,41.06
2016-06-06T10:06:14.337Z,40.86
2016-06-06T10:07:14.356Z,40.89
2016-06-06T10:08:14.404Z,41.35
2016-06-06T10:09:14.423Z,41.16
2016-06-06T10:10:14.300Z,41.25
2016-06-06T10:11:14.476Z,41.25
2016-06-06T10:12:14.509Z,40.86
2016-06-06T10:13:14.527Z,41.16
2016-06-06T10:14:14.562Z,41.06
2016-06-06T10:15:14.611Z,41.16
2016-06-06T10:16:14.614Z,41.64
2016-06-06T10:17:14.647Z,41.55
2016-06-06T10:18:14.525Z,41.55
2016-06-06T10:19:14.700Z,41.45
2016-06-06T10:20:14.734Z,41.45
2016-06-06T10:21:14.768Z,41.55
2016-06-06T10:22:14.786Z,41.64
2016-06-06T10:23:14.836Z,41.35
2016-06-06T10:24:14.854Z,41.25
2016-06-06T10:25:14.872Z,41.83
2016-06-06T10:26:14.907Z,41.45
2016-06-06T10:27:14.940Z,41.55
2016-06-06T10:28:14.957Z,41.64
2016-06-06T10:29:14.852Z,41.83
2016-06-06T10:30:15.026Z,42.22
2016-06-06T10:31:15.060Z,42.32
2016-06-06T10:32:15.078Z,42.41
2016-06-06T10:33:15.112Z,42.2
2016-06-06T10:34:15.146Z,42.13
2016-06-06T10:35:15.165Z,42.1
2016-06-06T10:36:15.198Z,42.13
2016-06-06T10:37:15.217Z,42.1
2016-06-06T10:38:15.266Z,41.91
2016-06-06T10:39:15.285Z,42
2016-06-06T10:40:15.319Z,42.49
2016-06-06T10:41:15.337Z,42.4
2016-06-06T10:42:15.370Z,42.4
2016-06-06T10:43:15.389Z,42.4
2016-06-06T10:44:15.423Z,42.59
2016-06-06T10:45:15.458Z,42.49
2016-06-06T10:46:15.491Z,42.68
2016-06-06T10:47:15.509Z,42.68
2016-06-06T10:48:15.544Z,42.49
2016-06-06T10:49:15.561Z,42.49
2016-06-06T10:50:15.611Z,42.88
2016-06-06T10:51:15.630Z,42.2
2016-06-06T10:52:15.648Z,42.68
2016-06-06T10:53:15.682Z,42.78
2016-06-06T10:54:15.716Z,42.68
2016-06-06T10:55:15.735Z,42.49
2016-06-06T10:56:15.768Z,42.3
2016-06-06T10:57:15.786Z,42.4
2016-06-06T10:58:15.820Z,42.59
2016-06-06T10:59:16.541Z,42.88
2016-06-06T11:00:15.904Z,42.68
2016-06-06T11:01:15.907Z,42.78
2016-06-06T11:02:15.940Z,42.68
2016-06-06T11:03:15.959Z,42.78
2016-06-06T11:04:15.993Z,42.78
2016-06-06T11:05:16.058Z,42.68
2016-06-06T11:06:16.061Z,42.68
2016-06-06T11:07:16.079Z,42.88
2016-06-06T11:08:16.112Z,42.78
2016-06-06T11:09:16.131Z,42.66
2016-06-06T11:10:16.165Z,43.37
2016-06-06T11:11:16.231Z,43.24
2016-06-06T11:12:16.233Z,43.46
2016-06-06T11:13:16.251Z,43.37
2016-06-06T11:14:16.286Z,42.96
2016-06-06T11:15:16.881Z,43.07
2016-06-06T11:16:16.337Z,43.05
2016-06-06T11:17:16.402Z,43.15
2016-06-06T11:18:16.390Z,43.24
2016-06-06T11:19:16.424Z,43.27
2016-06-06T11:20:16.458Z,43.34
2016-06-06T11:21:16.476Z,42.86
2016-06-06T11:22:16.510Z,43.24
2016-06-06T11:23:16.544Z,43.34
2016-06-06T11:24:16.563Z,43.34
2016-06-06T11:25:16.611Z,43.63
2016-06-06T11:26:16.630Z,43.34
2016-06-06T11:27:16.664Z,43.63
2016-06-06T11:28:16.682Z,43.73
2016-06-06T11:29:16.732Z,42.76
2016-06-06T11:30:16.735Z,43.34
2016-06-06T11:31:16.768Z,43.34
2016-06-06T11:32:16.787Z,43.34
2016-06-06T11:33:16.821Z,43.54
2016-06-06T11:34:16.854Z,43.65
2016-06-06T11:35:16.888Z,43.63
2016-06-06T11:36:16.751Z,43.44
2016-06-06T11:37:16.941Z,43.44
2016-06-06T11:38:16.959Z,43.54
2016-06-06T11:39:16.993Z,43.24
2016-06-06T11:40:17.026Z,43.15
2016-06-06T11:41:17.061Z,43.54
2016-06-06T11:42:17.079Z,43.44
2016-06-06T11:43:17.114Z,43.54
2016-06-06T11:44:17.131Z,43.15
2016-06-06T11:45:17.009Z,43.44
2016-06-06T11:46:17.200Z,42.76
2016-06-06T11:47:17.217Z,43.34
2016-06-06T11:48:17.236Z,43.24
2016-06-06T11:49:17.270Z,43.15
2016-06-06T11:50:17.304Z,43.24
2016-06-06T11:51:17.338Z,43.24
2016-06-06T11:52:17.356Z,43.63
2016-06-06T11:53:17.219Z,43.44
2016-06-06T11:54:17.252Z,43.44
2016-06-06T11:55:17.442Z,43.73
2016-06-06T11:56:17.477Z,43.44
2016-06-06T11:57:17.494Z,43.54
2016-06-06T11:58:17.544Z,43.44
2016-06-06T11:59:17.562Z,43.15
2016-06-06T12:00:17.769Z,44.21
2016-06-06T12:01:17.615Z,43.92
2016-06-06T12:02:17.632Z,43.54
2016-06-06T12:03:17.668Z,44.12
2016-06-06T12:04:17.546Z,43.63
2016-06-06T12:05:17.735Z,43.54
2016-06-06T12:06:17.753Z,43.15
2016-06-06T12:07:17.788Z,43.92
2016-06-06T12:08:17.806Z,43.82
2016-06-06T12:09:17.839Z,44.02
2016-06-06T12:10:17.874Z,43.73
2016-06-06T12:11:17.892Z,43.82
2016-06-06T12:12:17.926Z,44.02
2016-06-06T12:13:17.960Z,43.44
2016-06-06T12:14:17.993Z,44.12
2016-06-06T12:15:17.871Z,43.73
2016-06-06T12:16:18.046Z,43.92
2016-06-06T12:17:18.064Z,43.73
2016-06-06T12:18:18.098Z,43.92
2016-06-06T12:19:18.132Z,43.73
2016-06-06T12:20:18.150Z,43.92
2016-06-06T12:21:18.184Z,43.63
2016-06-06T12:22:18.219Z,43.92
2016-06-06T12:23:18.236Z,43.82
2016-06-06T12:24:18.270Z,43.63
2016-06-06T12:25:18.304Z,43.63
2016-06-06T12:26:18.322Z,43.82
2016-06-06T12:27:18.200Z,43.73
2016-06-06T12:28:18.374Z,43.73
2016-06-06T12:29:18.424Z,43.73
2016-06-06T12:30:19.021Z,43.73
2016-06-06T12:31:18.305Z,43.92
2016-06-06T12:32:18.496Z,43.82
2016-06-06T12:33:18.529Z,43.92
2016-06-06T12:34:18.562Z,43.92
2016-06-06T12:35:18.582Z,43.82
2016-06-06T12:36:18.599Z,43.92
2016-06-06T12:37:18.946Z,43.92
2016-06-06T12:38:18.667Z,43.92
2016-06-06T12:39:18.701Z,44.02
2016-06-06T12:40:18.720Z,43.73
2016-06-06T12:41:18.754Z,43.82
2016-06-06T12:42:18.772Z,43.82
2016-06-06T12:43:18.807Z,43.73
2016-06-06T12:44:18.840Z,43.73
2016-06-06T12:45:18.920Z,43.92
2016-06-06T12:46:18.892Z,43.73
2016-06-06T12:47:18.911Z,43.92
2016-06-06T12:48:18.945Z,43.73
2016-06-06T12:49:18.978Z,43.92
2016-06-06T12:50:19.012Z,43.92
2016-06-06T12:51:19.031Z,43.92
2016-06-06T12:52:19.064Z,43.92
2016-06-06T12:53:19.083Z,43.92
2016-06-06T12:54:19.117Z,43.73
2016-06-06T12:55:19.167Z,43.92
2016-06-06T12:56:19.169Z,43.54
2016-06-06T12:57:19.202Z,43.54
2016-06-06T12:58:19.236Z,43.44
2016-06-06T12:59:19.568Z,43.34
2016-06-06T13:00:19.289Z,43.82
2016-06-06T13:01:19.308Z,43.44
2016-06-06T13:02:19.341Z,43.44
2016-06-06T13:03:19.375Z,43.54
2016-06-06T13:04:19.409Z,43.54
2016-06-06T13:05:19.428Z,43.44
2016-06-06T13:06:19.462Z,43.44
2016-06-06T13:07:19.479Z,43.34
2016-06-06T13:08:19.514Z,43.34
2016-06-06T13:09:19.548Z,43.54
2016-06-06T13:10:19.582Z,43.44
2016-06-06T13:11:19.600Z,43.34
2016-06-06T13:12:19.634Z,43.63
2016-06-06T13:13:19.652Z,43.34
2016-06-06T13:14:19.687Z,43.44
2016-06-06T13:15:19.829Z,43.63
2016-06-06T13:16:19.739Z,43.34
2016-06-06T13:17:19.772Z,43.34
2016-06-06T13:18:19.806Z,43.44
2016-06-06T13:19:19.825Z,43.44
2016-06-06T13:20:19.859Z,43.44
2016-06-06T13:21:19.892Z,43.82
2016-06-06T13:22:19.911Z,43.63
2016-06-06T13:23:19.945Z,43.34
2016-06-06T13:24:19.978Z,43.54
2016-06-06T13:25:19.997Z,43.44
2016-06-06T13:26:20.031Z,43.54
2016-06-06T13:27:20.049Z,43.44
2016-06-06T13:28:20.083Z,43.54
2016-06-06T13:29:20.102Z,43.73
2016-06-06T13:30:19.994Z,43.82
2016-06-06T13:31:20.169Z,43.92
2016-06-06T13:32:20.188Z,43.82
2016-06-06T13:33:20.221Z,43.82
2016-06-06T13:34:20.255Z,43.92
2016-06-06T13:35:20.274Z,43.73
2016-06-06T13:36:20.152Z,43.92
2016-06-06T13:37:20.341Z,44.02
2016-06-06T13:38:20.376Z,44.12
2016-06-06T13:39:20.394Z,44.02
2016-06-06T13:40:20.428Z,43.82
2016-06-06T13:41:20.446Z,43.82
2016-06-06T13:42:20.479Z,43.82
2016-06-06T13:43:20.499Z,43.92
2016-06-06T13:44:20.533Z,43.92
2016-06-06T13:45:20.567Z,43.82
2016-06-06T13:46:20.584Z,43.92
2016-06-06T13:47:20.635Z,44.21
2016-06-06T13:48:20.653Z,44.7
2016-06-06T13:49:20.530Z,44.7
2016-06-06T13:50:20.705Z,44.5
2016-06-06T13:51:20.739Z,44.6
2016-06-06T13:52:20.757Z,44.21
2016-06-06T13:53:20.791Z,44.38
2016-06-06T13:54:20.669Z,44.29
2016-06-06T13:55:20.844Z,44.5
2016-06-06T13:56:20.877Z,44.38
2016-06-06T13:57:20.786Z,44.29
2016-06-06T13:58:20.929Z,44.57
2016-06-06T13:59:21.650Z,44.19
2016-06-06T14:00:21.497Z,44.67
2016-06-06T14:01:21.016Z,45.06
2016-06-06T14:02:21.066Z,44.96
2016-06-06T14:03:21.130Z,45.06
2016-06-06T14:04:21.102Z,44.96
2016-06-06T14:05:21.121Z,44.96
2016-06-06T14:06:21.155Z,44.77
2016-06-06T14:07:21.188Z,44.67
2016-06-06T14:08:21.254Z,44.67
2016-06-06T14:09:21.240Z,44.87
2016-06-06T14:10:21.524Z,44.77
2016-06-06T14:11:21.340Z,44.57
2016-06-06T14:12:21.171Z,44.87
2016-06-06T14:13:21.360Z,44.96
2016-06-06T14:14:21.473Z,45.16
2016-06-06T14:15:22.148Z,45.16
2016-06-06T14:16:21.447Z,45.06
2016-06-06T14:17:21.496Z,45.06
2016-06-06T14:18:21.514Z,45.16
2016-06-06T14:19:21.564Z,45.16
2016-06-06T14:20:21.801Z,44.87
2016-06-06T14:21:21.584Z,44.87
2016-06-06T14:22:21.603Z,44.77
2016-06-06T14:23:21.684Z,45.06
2016-06-06T14:24:21.672Z,44.77
2016-06-06T14:25:21.768Z,44.77
2016-06-06T14:26:21.770Z,45.25
2016-06-06T14:27:21.757Z,44.87
2016-06-06T14:28:21.792Z,45.16
2016-06-06T14:29:22.966Z,44.87
2016-06-06T14:30:21.796Z,44.87
2016-06-06T14:31:21.862Z,44.67
2016-06-06T14:32:21.896Z,44.77
2016-06-06T14:33:21.930Z,44.87
2016-06-06T14:34:21.994Z,44.77
2016-06-06T14:35:21.982Z,44.79
2016-06-06T14:36:22.000Z,44.67
2016-06-06T14:37:22.035Z,44.67
2016-06-06T14:38:22.068Z,44.98
2016-06-06T14:39:22.103Z,44.89
2016-06-06T14:40:22.371Z,44.98
2016-06-06T14:41:22.154Z,44.79
2016-06-06T14:42:22.220Z,44.89
2016-06-06T14:43:22.207Z,44.89
2016-06-06T14:44:22.866Z,44.4
2016-06-06T14:45:22.337Z,44.4
2016-06-06T14:46:22.293Z,44.4
2016-06-06T14:47:22.311Z,44.5
2016-06-06T14:48:22.346Z,44.31
2016-06-06T14:49:22.426Z,44.31
2016-06-06T14:50:22.459Z,44.7
2016-06-06T14:51:22.431Z,44.7
2016-06-06T14:52:22.465Z,44.79
2016-06-06T14:53:22.483Z,44.12
2016-06-06T14:54:22.767Z,44.12
2016-06-06T14:55:22.551Z,43.92
2016-06-06T14:56:22.617Z,43.73
2016-06-06T14:57:22.603Z,44.02
2016-06-06T14:58:22.654Z,43.92
2016-06-06T14:59:23.437Z,43.92
2016-06-06T15:00:23.144Z,43.82
2016-06-06T15:01:22.724Z,44.21
2016-06-06T15:02:22.742Z,44.02
2016-06-06T15:03:22.620Z,44.21
2016-06-06T15:04:22.810Z,44.02
2016-06-06T15:05:22.828Z,43.63
2016-06-06T15:06:22.863Z,43.92
2016-06-06T15:07:22.880Z,43.63
2016-06-06T15:08:22.916Z,43.92
2016-06-06T15:09:22.949Z,43.92
2016-06-06T15:10:22.966Z,43.63
2016-06-06T15:11:23.001Z,43.82
2016-06-06T15:12:23.035Z,43.92
2016-06-06T15:13:23.053Z,43.75
2016-06-06T15:14:23.087Z,43.63
2016-06-06T15:15:23.168Z,43.63
2016-06-06T15:16:23.139Z,43.92
2016-06-06T15:17:23.173Z,43.63
2016-06-06T15:18:23.207Z,43.63
2016-06-06T15:19:23.226Z,43.75
2016-06-06T15:20:23.260Z,43.73
2016-06-06T15:21:23.293Z,43.63
2016-06-06T15:22:23.328Z,43.92
2016-06-06T15:23:23.346Z,43.44
2016-06-06T15:24:23.380Z,43.24
2016-06-06T15:25:23.398Z,43.15
2016-06-06T15:26:23.431Z,43.63
2016-06-06T15:27:23.450Z,43.63
2016-06-06T15:28:23.484Z,43.95
2016-06-06T15:29:32.300Z,43.44
2016-06-06T15:30:23.550Z,43.82
2016-06-06T15:31:23.568Z,43.95
2016-06-06T15:32:23.602Z,43.82
2016-06-06T15:33:23.620Z,43.92
2016-06-06T15:34:23.653Z,44.13
2016-06-06T15:35:23.689Z,43.73
2016-06-06T15:36:23.706Z,43.92
2016-06-06T15:37:23.741Z,43.82
2016-06-06T15:38:23.758Z,43.82
2016-06-06T15:39:23.792Z,43.82
2016-06-06T15:40:23.827Z,43.92
2016-06-06T15:41:23.844Z,43.63
2016-06-06T15:42:23.879Z,44.12
2016-06-06T15:43:23.896Z,43.73
2016-06-06T15:44:23.946Z,44.12
2016-06-06T15:45:24.730Z,43.73
2016-06-06T15:46:23.999Z,43.63
2016-06-06T15:47:24.018Z,44.12
2016-06-06T15:48:24.051Z,43.44
2016-06-06T15:49:24.085Z,43.24
2016-06-06T15:50:24.104Z,43.85
2016-06-06T15:51:24.138Z,43.63
2016-06-06T15:52:24.171Z,43.73
2016-06-06T15:53:24.190Z,43.15
2016-06-06T15:54:24.223Z,43.46
2016-06-06T15:55:24.257Z,43.55
2016-06-06T15:56:24.276Z,44.13
2016-06-06T15:57:24.309Z,43.55
2016-06-06T15:58:24.328Z,43.27
2016-06-06T15:59:24.456Z,43.24
2016-06-06T16:00:24.396Z,43.46
2016-06-06T16:01:24.414Z,43.46
2016-06-06T16:02:24.448Z,43.54
2016-06-06T16:03:24.482Z,43.05
2016-06-06T16:04:24.563Z,43.55
2016-06-06T16:05:24.534Z,43.75
2016-06-06T16:06:24.569Z,43.55
2016-06-06T16:07:24.586Z,43.34
2016-06-06T16:08:24.620Z,43.63
2016-06-06T16:09:24.483Z,43.63
2016-06-06T16:10:24.689Z,43.95
2016-06-06T16:11:24.707Z,43.92
2016-06-06T16:12:24.741Z,43.65
2016-06-06T16:13:24.603Z,43.95
2016-06-06T16:14:24.794Z,43.92
2016-06-06T16:15:24.827Z,43.75
2016-06-06T16:16:24.846Z,43.73
2016-06-06T16:17:24.879Z,43.95
2016-06-06T16:18:24.913Z,43.82
2016-06-06T16:19:24.932Z,43.82
2016-06-06T16:20:24.966Z,43.73
2016-06-06T16:21:24.984Z,43.73
2016-06-06T16:22:25.018Z,43.92
2016-06-06T16:23:25.036Z,43.82
2016-06-06T16:24:25.070Z,43.73
2016-06-06T16:25:25.104Z,44.21
2016-06-06T16:26:25.138Z,44.31
2016-06-06T16:27:25.156Z,44.12
2016-06-06T16:28:25.190Z,44.02
2016-06-06T16:29:25.709Z,44.02
2016-06-06T16:30:25.539Z,44.02
2016-06-06T16:31:25.276Z,44.12
2016-06-06T16:32:25.295Z,44.21
2016-06-06T16:33:25.328Z,44.02
2016-06-06T16:34:25.362Z,43.82
2016-06-06T16:35:25.381Z,43.82
2016-06-06T16:36:25.415Z,43.82
2016-06-06T16:37:25.448Z,44.02
2016-06-06T16:38:25.467Z,43.73
2016-06-06T16:39:25.501Z,43.92
2016-06-06T16:40:25.535Z,43.82
2016-06-06T16:41:25.553Z,43.82
2016-06-06T16:42:25.587Z,44.21
2016-06-06T16:43:25.626Z,44.02
2016-06-06T16:44:26.040Z,43.82
2016-06-06T16:45:26.375Z,43.92
2016-06-06T16:46:25.727Z,43.73
2016-06-06T16:47:25.750Z,44.02
2016-06-06T16:48:25.787Z,44.21
2016-06-06T16:49:25.822Z,44.02
2016-06-06T16:50:25.841Z,44.21
2016-06-06T16:51:25.877Z,43.92
2016-06-06T16:52:25.896Z,44.12
2016-06-06T16:53:25.963Z,44.02
2016-06-06T16:54:25.966Z,43.92
2016-06-06T16:55:25.986Z,44.31
2016-06-06T16:56:26.020Z,44.89
2016-06-06T16:57:26.055Z,44.4
2016-06-06T16:58:26.074Z,44.5
2016-06-06T16:59:26.623Z,44.6
2016-06-06T17:00:26.158Z,44.4
2016-06-06T17:01:26.208Z,44.5
2016-06-06T17:02:26.195Z,44.31
2016-06-06T17:03:26.229Z,44.31
2016-06-06T17:04:26.247Z,44.21
2016-06-06T17:05:26.281Z,44.7
2016-06-06T17:06:26.314Z,44.79
2016-06-06T17:07:26.334Z,45.08
2016-06-06T17:08:26.367Z,44.79
2016-06-06T17:09:26.386Z,44.98
2016-06-06T17:10:26.420Z,44.87
2016-06-06T17:11:26.453Z,45.18
2016-06-06T17:12:26.488Z,45.16
2016-06-06T17:13:26.522Z,44.87
2016-06-06T17:14:27.540Z,45.35
2016-06-06T17:15:27.011Z,45.35
2016-06-06T17:16:26.592Z,45.64
2016-06-06T17:17:26.626Z,45.64
2016-06-06T17:18:26.644Z,45.54
2016-06-06T17:19:26.679Z,45.35
2016-06-06T17:20:26.712Z,45.45
2016-06-06T17:21:26.746Z,45.25
2016-06-06T17:22:26.765Z,45.45
2016-06-06T17:23:26.783Z,45.83
2016-06-06T17:24:26.817Z,45.83
2016-06-06T17:25:26.835Z,45.64
2016-06-06T17:26:26.868Z,45.74
2016-06-06T17:27:26.934Z,45.83
2016-06-06T17:28:26.937Z,45.64
2016-06-06T17:29:27.783Z,45.54
2016-06-06T17:30:27.896Z,46.03
2016-06-06T17:31:27.023Z,46.03
2016-06-06T17:32:27.056Z,46.1
2016-06-06T17:33:27.076Z,46.2
2016-06-06T17:34:27.094Z,45.91
2016-06-06T17:35:27.127Z,46.39
2016-06-06T17:36:27.161Z,46.58
2016-06-06T17:37:27.180Z,46.3
2016-06-06T17:38:27.213Z,46.2
2016-06-06T17:39:27.248Z,46.3
2016-06-06T17:40:27.266Z,46.58
2016-06-06T17:41:27.299Z,46.49
2016-06-06T17:42:27.334Z,46.58
2016-06-06T17:43:27.352Z,46.49
2016-06-06T17:44:27.386Z,46.39
2016-06-06T17:45:27.419Z,46.68
2016-06-06T17:46:27.439Z,46.58
2016-06-06T17:47:27.472Z,46.68
2016-06-06T17:48:27.490Z,46.68
2016-06-06T17:49:27.525Z,46.68
2016-06-06T17:50:27.543Z,47.45
2016-06-06T17:51:27.576Z,47.26
2016-06-06T17:52:27.610Z,47.36
2016-06-06T17:53:27.629Z,46.97
2016-06-06T17:54:27.663Z,47.16
2016-06-06T17:55:27.696Z,47.07
2016-06-06T17:56:27.731Z,47.45
2016-06-06T17:57:27.749Z,47.36
2016-06-06T17:58:27.783Z,47.36
2016-06-06T17:59:28.942Z,47.07
2016-06-06T18:00:27.835Z,47.36
2016-06-06T18:01:27.854Z,47.84
2016-06-06T18:02:27.887Z,47.33
2016-06-06T18:03:27.765Z,47.63
2016-06-06T18:04:27.940Z,47.72
2016-06-06T18:05:27.973Z,47.53
2016-06-06T18:06:28.008Z,47.63
2016-06-06T18:07:28.026Z,47.81
2016-06-06T18:08:28.060Z,47.81
2016-06-06T18:09:28.078Z,47.91
2016-06-06T18:10:28.112Z,48.01
2016-06-06T18:11:28.146Z,48.01
2016-06-06T18:12:28.180Z,48.01
2016-06-06T18:13:28.199Z,48.11
2016-06-06T18:14:28.233Z,48.11
2016-06-06T18:15:28.422Z,48.11
2016-06-06T18:16:28.285Z,48.59
2016-06-06T18:17:28.303Z,48.79
2016-06-06T18:18:28.337Z,48.49
2016-06-06T18:19:28.371Z,48.3
2016-06-06T18:20:28.389Z,48.79
2016-06-06T18:21:28.424Z,48.79
2016-06-06T18:22:28.457Z,48.69
2016-06-06T18:23:28.507Z,48.49
2016-06-06T18:24:28.509Z,48.88
2016-06-06T18:25:28.544Z,48.76
2016-06-06T18:26:28.576Z,48.57
2016-06-06T18:27:28.595Z,48.66
2016-06-06T18:28:28.614Z,48.79
2016-06-06T18:29:29.554Z,49.24
2016-06-06T18:30:28.697Z,48.86
2016-06-06T18:31:28.701Z,48.95
2016-06-06T18:32:28.734Z,48.86
2016-06-06T18:33:28.767Z,49.24
2016-06-06T18:34:28.801Z,49.24
2016-06-06T18:35:28.820Z,49.24
2016-06-06T18:36:28.839Z,49.73
2016-06-06T18:37:28.872Z,49.15
2016-06-06T18:38:28.906Z,49.24
2016-06-06T18:39:28.925Z,49.15
2016-06-06T18:40:28.958Z,49.05
2016-06-06T18:41:29.024Z,49.24
2016-06-06T18:42:29.011Z,49.44
2016-06-06T18:43:29.044Z,49.63
2016-06-06T18:44:29.079Z,49.92
2016-06-06T18:45:29.097Z,49.82
2016-06-06T18:46:29.131Z,49.73
2016-06-06T18:47:29.149Z,49.73
2016-06-06T18:48:29.183Z,49.53
2016-06-06T18:49:29.217Z,49.34
2016-06-06T18:50:29.235Z,49.34
2016-06-06T18:51:29.269Z,49.44
2016-06-06T18:52:29.288Z,49.8
2016-06-06T18:53:29.322Z,50.09
2016-06-06T18:54:29.355Z,49.8
2016-06-06T18:55:29.373Z,50.09
2016-06-06T18:56:29.408Z,49.99
2016-06-06T18:57:29.442Z,49.8
2016-06-06T18:58:29.460Z,49.7
2016-06-06T18:59:29.698Z,49.8
2016-06-06T19:00:29.356Z,50.28
2016-06-06T19:01:29.545Z,50.38
2016-06-06T19:02:29.564Z,50.28
2016-06-06T19:03:29.598Z,50.28
2016-06-06T19:04:29.632Z,50.47
2016-06-06T19:05:29.650Z,50.18
2016-06-06T19:06:29.684Z,50.09
2016-06-06T19:07:29.719Z,50.18
2016-06-06T19:08:29.753Z,50.18
2016-06-06T19:09:29.770Z,50.18
2016-06-06T19:10:29.805Z,50.38
2016-06-06T19:11:29.823Z,50.67
2016-06-06T19:12:29.858Z,50.67
2016-06-06T19:13:29.875Z,50.57
2016-06-06T19:14:29.909Z,50.67
2016-06-06T19:15:29.927Z,50.57
2016-06-06T19:16:29.994Z,50.38
2016-06-06T19:17:29.996Z,50.57
2016-06-06T19:18:30.014Z,50.38
2016-06-06T19:19:30.047Z,50.28
2016-06-06T19:20:30.082Z,50.18
2016-06-06T19:21:30.100Z,50.28
2016-06-06T19:22:30.135Z,50.47
2016-06-06T19:23:30.152Z,50.18
2016-06-06T19:24:30.186Z,51.15
2016-06-06T19:25:30.235Z,50.18
2016-06-06T19:26:30.254Z,50.38
2016-06-06T19:27:30.273Z,50.47
2016-06-06T19:28:30.306Z,51.05
2016-06-06T19:29:30.324Z,51.15
2016-06-06T19:30:30.359Z,51.05
2016-06-06T19:31:30.393Z,51.15
2016-06-06T19:32:30.411Z,51.34
2016-06-06T19:33:30.445Z,50.76
2016-06-06T19:34:30.463Z,50.86
2016-06-06T19:35:30.497Z,50.86
2016-06-06T19:36:30.531Z,51.15
2016-06-06T19:37:30.550Z,51.05
2016-06-06T19:38:30.428Z,51.25
2016-06-06T19:39:30.601Z,51.22
2016-06-06T19:40:30.636Z,51.22
2016-06-06T19:41:30.498Z,51.32
2016-06-06T19:42:30.688Z,51.15
2016-06-06T19:43:30.722Z,51.12
2016-06-06T19:44:30.740Z,51.12
2016-06-06T19:45:31.867Z,51.41
2016-06-06T19:46:30.808Z,51.32
2016-06-06T19:47:30.827Z,51.41
2016-06-06T19:48:30.860Z,52.09
2016-06-06T19:49:30.894Z,51.61
2016-06-06T19:50:30.912Z,51.41
2016-06-06T19:51:30.930Z,51.8
2016-06-06T19:52:30.965Z,51.61
2016-06-06T19:53:31.014Z,51.7
2016-06-06T19:54:31.032Z,51.8
2016-06-06T19:55:31.051Z,51.8
2016-06-06T19:56:31.085Z,51.7
2016-06-06T19:57:31.104Z,51.8
2016-06-06T19:58:31.137Z,52.09
2016-06-06T19:59:31.155Z,52.28
2016-06-06T20:00:31.189Z,52.19
2016-06-06T20:01:31.223Z,52.28
2016-06-06T20:02:31.242Z,52.28
2016-06-06T20:03:31.119Z,52.28
2016-06-06T20:04:31.403Z,51.97
2016-06-06T20:05:31.360Z,52.28
2016-06-06T20:06:31.361Z,52.19
2016-06-06T20:07:31.381Z,52.28
2016-06-06T20:08:31.414Z,52.55
2016-06-06T20:09:31.448Z,52.76
2016-06-06T20:10:31.466Z,52.67
2016-06-06T20:11:31.500Z,52.73
2016-06-06T20:12:31.534Z,52.73
2016-06-06T20:13:31.552Z,53.13
2016-06-06T20:14:31.586Z,53.13
2016-06-06T20:15:31.605Z,53.22
2016-06-06T20:16:31.638Z,53.13
2016-06-06T20:17:31.672Z,53.13
2016-06-06T20:18:31.691Z,52.93
2016-06-06T20:19:31.725Z,53.03
2016-06-06T20:20:31.602Z,53.03
2016-06-06T20:21:31.809Z,52.93
2016-06-06T20:22:31.811Z,53.51
2016-06-06T20:23:31.829Z,53.61
2016-06-06T20:24:31.863Z,53.61
2016-06-06T20:25:31.882Z,53.51
2016-06-06T20:26:31.915Z,53.31
2016-06-06T20:27:31.949Z,53.61
2016-06-06T20:28:31.983Z,53.7
2016-06-06T20:29:32.002Z,53.31
2016-06-06T20:30:32.051Z,53.7
2016-06-06T20:31:32.054Z,53.8
2016-06-06T20:32:32.088Z,53.8
2016-06-06T20:33:32.107Z,54.09
2016-06-06T20:34:32.141Z,53.7
2016-06-06T20:35:32.159Z,54.28
2016-06-06T20:36:32.192Z,54.18
2016-06-06T20:37:32.211Z,53.89
2016-06-06T20:38:32.245Z,54.18
2016-06-06T20:39:32.278Z,53.89
2016-06-06T20:40:32.297Z,54.47
2016-06-06T20:41:32.331Z,54.28
2016-06-06T20:42:32.365Z,54.47
2016-06-06T20:43:32.383Z,54.25
2016-06-06T20:44:32.401Z,54.25
2016-06-06T20:45:32.482Z,54.35
2016-06-06T20:46:32.469Z,54.44
2016-06-06T20:47:32.503Z,54.54
2016-06-06T20:48:32.522Z,54.54
2016-06-06T20:49:32.555Z,54.74
2016-06-06T20:50:32.667Z,54.54
2016-06-06T20:51:32.607Z,54.64
2016-06-06T20:52:32.641Z,54.54
2016-06-06T20:53:32.660Z,54.64
2016-06-06T20:54:32.694Z,54.93
2016-06-06T20:55:32.712Z,55.12
2016-06-06T20:56:32.730Z,54.74
2016-06-06T20:57:32.765Z,55.31
2016-06-06T20:58:32.799Z,55.41
2016-06-06T20:59:32.816Z,55.41
2016-06-06T21:00:32.851Z,55.51
2016-06-06T21:01:32.869Z,55.12
2016-06-06T21:02:32.904Z,55.02
2016-06-06T21:03:32.938Z,55.02
2016-06-06T21:04:32.954Z,55.41
2016-06-06T21:05:33.364Z,55.22
2016-06-06T21:06:33.008Z,55.51
2016-06-06T21:07:33.042Z,55.22
2016-06-06T21:08:33.059Z,55.22
2016-06-06T21:09:33.093Z,55.41
2016-06-06T21:10:33.159Z,55.6
2016-06-06T21:11:33.146Z,55.22
2016-06-06T21:12:33.180Z,55.02
2016-06-06T21:13:33.198Z,55.79
2016-06-06T21:14:33.232Z,55.6
2016-06-06T21:15:33.267Z,55.6
2016-06-06T21:16:33.284Z,55.51
2016-06-06T21:17:33.319Z,55.89
2016-06-06T21:18:33.336Z,56.18
2016-06-06T21:19:33.371Z,56.18
2016-06-06T21:20:33.435Z,55.96
2016-06-06T21:21:33.422Z,55.6
2016-06-06T21:22:33.441Z,55.87
2016-06-06T21:23:33.475Z,55.87
2016-06-06T21:24:33.493Z,55.67
2016-06-06T21:25:33.527Z,55.96
2016-06-06T21:26:33.561Z,55.77
2016-06-06T21:27:33.580Z,56.54
2016-06-06T21:28:33.613Z,56.44
2016-06-06T21:29:33.632Z,56.05
2016-06-06T21:30:33.666Z,56.25
2016-06-06T21:31:33.699Z,56.35
2016-06-06T21:32:33.718Z,56.25
2016-06-06T21:33:33.751Z,56.44
2016-06-06T21:34:33.770Z,56.44